Aeroporto :
LOGIN :

Iscrizione | Disclaimer

   EN    FR    IT 

 










Sommario :    VFR   VFR Marginale   IFR   IFR Intensivo   IFR Molto Intensivo
Visibilità : 
Base nubi : 
>= 8 km
>= 3000ft
5 / 8 km
1000 / 3000 ft
1500m / 5 km
500 / 1000 ft
800 / 1500m
200 / 500 ft
< 800m
< 200 ft
Simboli :   Temporali  Nebbia  Neve Forte  Precipitazioni Forti  Vento > 20 kt
SIGMETs :   Varie  Temporali  Ghiacco  Turbolenza  Onda orograficha  Ceneri Vulcaniche







- Altitudine del aeroporto : 425 ft
- Codice IATA : DTM


EDLW - Dortmund

ULTIMO METAR :
  • 220650Z 21010KT CAVOK 20/13 Q1023

METARs OBSOLETI :
  • 220620Z 20009KT CAVOK 18/14 Q1022
  • 220550Z 19008KT CAVOK 17/14 Q1022
  • 220520Z 19008KT CAVOK 17/13 Q1022
  • 220450Z 18008KT CAVOK 16/14 Q1022
  • 220420Z 00000KT CAVOK 15/13 Q1022

TAF TAF EDLW
Valido dal 22 a 06 ore il 23 a 06 ore UTC


220500Z 2206/2306 18008KT CAVOK
BECMG 2206/2208 26009KT
BECMG 2219/2221 18004KT
Nessun NOTAM noto per questo aeroporto.



MetMap, La meteo Aeronautica in un colpo d'occhio ! - Copyright ORBIFLY Dicembre 2007 - Disclaimer

ORBIFLY MET'MAP TEAM :

Programmazione e sviluppo : Alexandra Zaïnal
Concezione e sviluppo : Baudouin d'Aumeries
Co-Programmazione e sviluppo : Marc-Olivier Méhu
Supporto tecnico e logistico : Manuel Goepfert
Aiuto per la traduzione : Arnaldo La Scala

Contatto : metmap@orbifly.com




FONTI E CREDITI :

   NOAA